Time,TemperatureF,DewpointF,PressureIn,WindDirection,WindDirectionDegrees,WindSpeedMPH,WindSpeedGustMPH,Humidity,HourlyPrecipIn,Conditions,Clouds,dailyrainin,SoftwareType,DateUTC
2014-09-16 00:03:00,54.5,54.2,29.96,South,180,0.0,-999.0,99,-99.99,,,0.00,Acu-Link.com,2014-09-16 04:03:00,
2014-09-16 00:19:00,54.3,54.0,29.95,South,180,0.0,-999.0,99,-99.99,,,0.00,Acu-Link.com,2014-09-16 04:19:00,
2014-09-16 00:34:00,54.1,53.8,29.95,South,180,0.0,-999.0,99,-99.99,,,0.04,Acu-Link.com,2014-09-16 04:34:00,
2014-09-16 00:49:00,54.0,53.7,29.95,South,180,0.0,-999.0,99,-99.99,,,0.04,Acu-Link.com,2014-09-16 04:49:00,
2014-09-16 01:05:00,53.8,53.5,29.94,South,180,0.0,-999.0,99,-99.99,,,0.06,Acu-Link.com,2014-09-16 05:05:00,
2014-09-16 01:20:00,53.6,53.3,29.94,South,180,0.0,-999.0,99,-99.99,,,0.06,Acu-Link.com,2014-09-16 05:20:00,
2014-09-16 01:35:00,53.6,53.3,29.95,South,180,0.0,-999.0,99,-99.99,,,0.06,Acu-Link.com,2014-09-16 05:35:00,
2014-09-16 01:50:00,53.4,53.1,29.94,SSW,202,0.0,-999.0,99,-99.99,,,0.07,Acu-Link.com,2014-09-16 05:50:00,
2014-09-16 02:05:00,53.2,52.9,29.94,South,180,0.0,-999.0,99,-99.99,,,0.08,Acu-Link.com,2014-09-16 06:05:00,
2014-09-16 02:20:00,53.2,52.9,29.93,South,180,0.0,-999.0,99,-99.99,,,0.08,Acu-Link.com,2014-09-16 06:20:00,
2014-09-16 02:35:00,53.1,52.8,29.93,South,180,0.0,-999.0,99,-99.99,,,0.08,Acu-Link.com,2014-09-16 06:35:00,
2014-09-16 02:50:00,52.7,52.4,29.94,South,180,0.0,-999.0,99,-99.99,,,0.08,Acu-Link.com,2014-09-16 06:50:00,
2014-09-16 03:05:00,52.5,52.2,29.94,South,180,0.0,-999.0,99,-99.99,,,0.08,Acu-Link.com,2014-09-16 07:05:00,
2014-09-16 03:21:00,52.3,52.0,29.94,South,180,0.0,-999.0,99,-99.99,,,0.08,Acu-Link.com,2014-09-16 07:21:00,
2014-09-16 03:36:00,52.3,52.0,29.93,South,180,0.0,-999.0,99,-99.99,,,0.08,Acu-Link.com,2014-09-16 07:36:00,
2014-09-16 03:51:00,52.5,52.2,29.93,South,180,0.0,-999.0,99,-99.99,,,0.08,Acu-Link.com,2014-09-16 07:51:00,
2014-09-16 04:06:00,52.5,52.2,29.93,South,180,0.0,-999.0,99,-99.99,,,0.08,Acu-Link.com,2014-09-16 08:06:00,
2014-09-16 04:21:00,52.7,52.4,29.93,SSW,202,0.0,-999.0,99,-99.99,,,0.08,Acu-Link.com,2014-09-16 08:21:00,
2014-09-16 04:36:00,52.7,52.4,29.94,South,180,0.0,-999.0,99,-99.99,,,0.08,Acu-Link.com,2014-09-16 08:36:00,
2014-09-16 04:51:00,52.7,52.4,29.95,South,180,0.0,-999.0,99,-99.99,,,0.08,Acu-Link.com,2014-09-16 08:51:00,
2014-09-16 05:06:00,52.9,52.6,29.94,South,180,0.0,-999.0,99,-99.99,,,0.08,Acu-Link.com,2014-09-16 09:06:00,
2014-09-16 05:21:00,52.9,52.6,29.94,South,180,0.0,-999.0,99,-99.99,,,0.08,Acu-Link.com,2014-09-16 09:21:00,
2014-09-16 05:36:00,53.1,52.8,29.94,South,180,0.0,-999.0,99,-99.99,,,0.08,Acu-Link.com,2014-09-16 09:36:00,
2014-09-16 05:52:00,53.1,52.8,29.95,South,180,0.0,-999.0,99,-99.99,,,0.08,Acu-Link.com,2014-09-16 09:52:00,
2014-09-16 06:07:00,53.1,52.8,29.96,South,180,0.0,-999.0,99,-99.99,,,0.08,Acu-Link.com,2014-09-16 10:07:00,
2014-09-16 06:22:00,53.1,52.8,29.96,South,180,0.0,-999.0,99,-99.99,,,0.08,Acu-Link.com,2014-09-16 10:22:00,
2014-09-16 06:37:00,53.1,52.8,29.96,South,180,0.0,-999.0,99,-99.99,,,0.08,Acu-Link.com,2014-09-16 10:37:00,
2014-09-16 06:52:00,53.1,52.8,29.96,South,180,0.0,-999.0,99,-99.99,,,0.08,Acu-Link.com,2014-09-16 10:52:00,
2014-09-16 07:07:00,53.1,52.8,29.98,South,180,0.0,-999.0,99,-99.99,,,0.08,Acu-Link.com,2014-09-16 11:07:00,
2014-09-16 07:22:00,53.1,52.8,29.98,South,180,0.0,-999.0,99,-99.99,,,0.08,Acu-Link.com,2014-09-16 11:22:00,
2014-09-16 07:37:00,53.2,52.9,29.97,South,180,0.0,-999.0,99,-99.99,,,0.08,Acu-Link.com,2014-09-16 11:37:00,
2014-09-16 07:52:00,53.4,53.1,29.98,South,180,0.0,-999.0,99,-99.99,,,0.08,Acu-Link.com,2014-09-16 11:52:00,
2014-09-16 08:08:00,53.8,53.5,29.98,South,180,0.0,-999.0,99,-99.99,,,0.08,Acu-Link.com,2014-09-16 12:08:00,
2014-09-16 08:23:00,54.0,53.7,29.98,South,180,0.0,-999.0,99,-99.99,,,0.08,Acu-Link.com,2014-09-16 12:23:00,
2014-09-16 08:38:00,54.5,54.2,29.99,South,180,0.0,-999.0,99,-99.99,,,0.08,Acu-Link.com,2014-09-16 12:38:00,
2014-09-16 08:53:00,54.9,54.6,30.00,South,180,0.0,-999.0,99,-99.99,,,0.08,Acu-Link.com,2014-09-16 12:53:00,
2014-09-16 09:08:00,55.8,55.5,29.98,West,270,0.0,-999.0,99,-99.99,,,0.08,Acu-Link.com,2014-09-16 13:08:00,
2014-09-16 09:23:00,56.7,56.1,29.99,SW,225,0.0,-999.0,98,-99.99,,,0.08,Acu-Link.com,2014-09-16 13:23:00,
2014-09-16 09:38:00,57.4,56.0,29.99,SSE,157,1.7,-999.0,95,-99.99,,,0.08,Acu-Link.com,2014-09-16 13:38:00,
2014-09-16 09:53:00,57.4,56.6,30.00,SW,225,0.0,-999.0,97,-99.99,,,0.08,Acu-Link.com,2014-09-16 13:53:00,
2014-09-16 10:08:00,60.8,56.6,30.00,SSW,202,0.0,-999.0,86,-99.99,,,0.08,Acu-Link.com,2014-09-16 14:08:00,
2014-09-16 10:24:00,59.7,55.8,30.00,NW,315,0.0,-999.0,87,-99.99,,,0.08,Acu-Link.com,2014-09-16 14:24:00,